sensor_id;sensor_type;location;lat;lon;timestamp;temperature;humidity
4308;DHT22;2167;53.448;9.984;2023-05-07T00:00:20;10.00;28.30
4308;DHT22;2167;53.448;9.984;2023-05-07T00:02:46;10.00;28.80
4308;DHT22;2167;53.448;9.984;2023-05-07T00:05:12;10.00;29.30
4308;DHT22;2167;53.448;9.984;2023-05-07T00:07:37;10.00;29.20
4308;DHT22;2167;53.448;9.984;2023-05-07T00:10:04;10.10;29.30
4308;DHT22;2167;53.448;9.984;2023-05-07T00:12:31;10.00;28.80
4308;DHT22;2167;53.448;9.984;2023-05-07T00:15:02;10.00;29.00
4308;DHT22;2167;53.448;9.984;2023-05-07T00:17:28;10.10;29.20
4308;DHT22;2167;53.448;9.984;2023-05-07T00:19:53;10.10;28.90
4308;DHT22;2167;53.448;9.984;2023-05-07T00:22:19;10.10;28.90
4308;DHT22;2167;53.448;9.984;2023-05-07T00:24:44;10.00;28.40
4308;DHT22;2167;53.448;9.984;2023-05-07T00:27:10;10.00;28.60
4308;DHT22;2167;53.448;9.984;2023-05-07T00:29:36;9.90;28.30
4308;DHT22;2167;53.448;9.984;2023-05-07T00:32:02;9.90;28.50
4308;DHT22;2167;53.448;9.984;2023-05-07T00:34:27;10.00;28.50
4308;DHT22;2167;53.448;9.984;2023-05-07T00:36:53;9.90;28.40
4308;DHT22;2167;53.448;9.984;2023-05-07T00:39:18;10.00;28.60
4308;DHT22;2167;53.448;9.984;2023-05-07T00:41:44;10.00;28.50
4308;DHT22;2167;53.448;9.984;2023-05-07T00:44:10;10.00;28.60
4308;DHT22;2167;53.448;9.984;2023-05-07T00:46:36;10.10;28.80
4308;DHT22;2167;53.448;9.984;2023-05-07T00:49:01;10.10;28.40
4308;DHT22;2167;53.448;9.984;2023-05-07T00:51:28;10.00;28.40
4308;DHT22;2167;53.448;9.984;2023-05-07T00:53:54;10.00;28.70
4308;DHT22;2167;53.448;9.984;2023-05-07T00:56:21;9.90;28.50
4308;DHT22;2167;53.448;9.984;2023-05-07T00:58:48;10.00;28.10
4308;DHT22;2167;53.448;9.984;2023-05-07T01:01:13;10.00;27.80
4308;DHT22;2167;53.448;9.984;2023-05-07T01:03:41;10.00;28.00
4308;DHT22;2167;53.448;9.984;2023-05-07T01:06:07;10.00;28.20
4308;DHT22;2167;53.448;9.984;2023-05-07T01:08:34;10.00;28.10
4308;DHT22;2167;53.448;9.984;2023-05-07T01:11:00;10.00;27.60
4308;DHT22;2167;53.448;9.984;2023-05-07T01:13:27;10.00;27.30
4308;DHT22;2167;53.448;9.984;2023-05-07T01:15:53;10.00;27.60
4308;DHT22;2167;53.448;9.984;2023-05-07T01:18:19;10.00;27.20
4308;DHT22;2167;53.448;9.984;2023-05-07T01:20:45;10.00;26.50
4308;DHT22;2167;53.448;9.984;2023-05-07T01:23:11;10.00;26.40
4308;DHT22;2167;53.448;9.984;2023-05-07T01:25:37;9.90;26.80
4308;DHT22;2167;53.448;9.984;2023-05-07T01:28:03;9.80;26.70
4308;DHT22;2167;53.448;9.984;2023-05-07T01:30:29;9.80;27.00
4308;DHT22;2167;53.448;9.984;2023-05-07T01:33:09;9.80;26.80
4308;DHT22;2167;53.448;9.984;2023-05-07T01:35:40;9.80;26.90
4308;DHT22;2167;53.448;9.984;2023-05-07T01:38:08;9.90;27.20
4308;DHT22;2167;53.448;9.984;2023-05-07T01:40:33;9.80;26.80
4308;DHT22;2167;53.448;9.984;2023-05-07T01:43:03;9.80;27.00
4308;DHT22;2167;53.448;9.984;2023-05-07T01:45:30;9.80;27.30
4308;DHT22;2167;53.448;9.984;2023-05-07T01:47:58;9.90;27.40
4308;DHT22;2167;53.448;9.984;2023-05-07T01:50:24;9.90;27.30
4308;DHT22;2167;53.448;9.984;2023-05-07T01:52:51;9.80;26.60
4308;DHT22;2167;53.448;9.984;2023-05-07T01:55:16;9.80;26.50
4308;DHT22;2167;53.448;9.984;2023-05-07T01:57:42;9.90;26.50
4308;DHT22;2167;53.448;9.984;2023-05-07T02:00:08;9.90;26.20
4308;DHT22;2167;53.448;9.984;2023-05-07T02:02:34;9.90;25.70
4308;DHT22;2167;53.448;9.984;2023-05-07T02:05:00;9.90;25.50
4308;DHT22;2167;53.448;9.984;2023-05-07T02:07:29;9.90;25.10
4308;DHT22;2167;53.448;9.984;2023-05-07T02:09:54;9.90;24.50
4308;DHT22;2167;53.448;9.984;2023-05-07T02:12:23;9.90;24.40
4308;DHT22;2167;53.448;9.984;2023-05-07T02:14:49;9.90;23.90
4308;DHT22;2167;53.448;9.984;2023-05-07T02:17:15;9.80;24.10
4308;DHT22;2167;53.448;9.984;2023-05-07T02:19:40;9.80;24.50
4308;DHT22;2167;53.448;9.984;2023-05-07T02:22:07;9.80;25.00
4308;DHT22;2167;53.448;9.984;2023-05-07T02:24:32;9.80;25.00
4308;DHT22;2167;53.448;9.984;2023-05-07T02:26:58;9.80;24.90
4308;DHT22;2167;53.448;9.984;2023-05-07T02:29:24;9.80;24.30
4308;DHT22;2167;53.448;9.984;2023-05-07T02:31:49;9.80;24.50
4308;DHT22;2167;53.448;9.984;2023-05-07T02:34:16;9.80;23.90
4308;DHT22;2167;53.448;9.984;2023-05-07T02:36:42;9.80;24.10
4308;DHT22;2167;53.448;9.984;2023-05-07T02:39:08;9.80;24.20
4308;DHT22;2167;53.448;9.984;2023-05-07T02:41:33;9.70;24.00
4308;DHT22;2167;53.448;9.984;2023-05-07T02:43:59;9.70;24.00
4308;DHT22;2167;53.448;9.984;2023-05-07T02:46:25;9.70;24.40
4308;DHT22;2167;53.448;9.984;2023-05-07T02:48:51;9.70;24.60
4308;DHT22;2167;53.448;9.984;2023-05-07T02:51:20;9.70;24.70
4308;DHT22;2167;53.448;9.984;2023-05-07T02:53:46;9.70;25.20
4308;DHT22;2167;53.448;9.984;2023-05-07T02:56:11;9.70;25.50
4308;DHT22;2167;53.448;9.984;2023-05-07T02:58:37;9.80;25.40
4308;DHT22;2167;53.448;9.984;2023-05-07T03:01:05;9.80;25.00
4308;DHT22;2167;53.448;9.984;2023-05-07T03:03:31;9.80;24.90
4308;DHT22;2167;53.448;9.984;2023-05-07T03:05:56;9.90;25.00
4308;DHT22;2167;53.448;9.984;2023-05-07T03:08:22;9.90;25.10
4308;DHT22;2167;53.448;9.984;2023-05-07T03:10:48;9.80;25.10
4308;DHT22;2167;53.448;9.984;2023-05-07T03:13:14;9.80;25.00
4308;DHT22;2167;53.448;9.984;2023-05-07T03:15:40;9.80;25.10
4308;DHT22;2167;53.448;9.984;2023-05-07T03:18:05;9.80;25.00
4308;DHT22;2167;53.448;9.984;2023-05-07T03:20:31;9.80;25.40
4308;DHT22;2167;53.448;9.984;2023-05-07T03:22:57;9.80;25.40
4308;DHT22;2167;53.448;9.984;2023-05-07T03:25:23;9.80;25.50
4308;DHT22;2167;53.448;9.984;2023-05-07T03:27:48;9.80;25.80
4308;DHT22;2167;53.448;9.984;2023-05-07T03:30:14;9.70;26.40
4308;DHT22;2167;53.448;9.984;2023-05-07T03:32:40;9.70;26.10
4308;DHT22;2167;53.448;9.984;2023-05-07T03:35:05;9.70;26.30
4308;DHT22;2167;53.448;9.984;2023-05-07T03:37:31;9.80;26.20
4308;DHT22;2167;53.448;9.984;2023-05-07T03:39:57;9.80;26.00
4308;DHT22;2167;53.448;9.984;2023-05-07T03:42:23;9.80;25.70
4308;DHT22;2167;53.448;9.984;2023-05-07T03:44:48;9.80;25.70
4308;DHT22;2167;53.448;9.984;2023-05-07T03:47:17;9.80;25.80
4308;DHT22;2167;53.448;9.984;2023-05-07T03:49:42;9.80;25.40
4308;DHT22;2167;53.448;9.984;2023-05-07T03:52:08;9.90;25.50
4308;DHT22;2167;53.448;9.984;2023-05-07T03:54:33;9.80;24.90
4308;DHT22;2167;53.448;9.984;2023-05-07T03:56:59;9.70;24.70
4308;DHT22;2167;53.448;9.984;2023-05-07T03:59:25;9.70;24.40
4308;DHT22;2167;53.448;9.984;2023-05-07T04:01:50;9.70;24.40
4308;DHT22;2167;53.448;9.984;2023-05-07T04:04:16;9.60;24.20
4308;DHT22;2167;53.448;9.984;2023-05-07T04:06:42;9.60;24.60
4308;DHT22;2167;53.448;9.984;2023-05-07T04:09:08;9.60;24.60
4308;DHT22;2167;53.448;9.984;2023-05-07T04:11:35;9.60;24.70
4308;DHT22;2167;53.448;9.984;2023-05-07T04:14:01;9.70;24.60
4308;DHT22;2167;53.448;9.984;2023-05-07T04:16:26;9.60;24.20
4308;DHT22;2167;53.448;9.984;2023-05-07T04:18:52;9.70;24.50
4308;DHT22;2167;53.448;9.984;2023-05-07T04:21:20;9.60;24.20
4308;DHT22;2167;53.448;9.984;2023-05-07T04:23:46;9.70;24.40
4308;DHT22;2167;53.448;9.984;2023-05-07T04:26:12;9.70;24.20
4308;DHT22;2167;53.448;9.984;2023-05-07T04:28:38;9.80;24.10
4308;DHT22;2167;53.448;9.984;2023-05-07T04:31:04;9.80;24.10
4308;DHT22;2167;53.448;9.984;2023-05-07T04:33:31;9.80;23.80
4308;DHT22;2167;53.448;9.984;2023-05-07T04:35:56;9.80;24.00
4308;DHT22;2167;53.448;9.984;2023-05-07T04:38:22;9.80;23.40
4308;DHT22;2167;53.448;9.984;2023-05-07T04:40:49;9.80;23.40
4308;DHT22;2167;53.448;9.984;2023-05-07T04:43:14;9.80;23.30
4308;DHT22;2167;53.448;9.984;2023-05-07T04:45:41;9.80;22.70
4308;DHT22;2167;53.448;9.984;2023-05-07T04:48:08;9.80;23.00
4308;DHT22;2167;53.448;9.984;2023-05-07T04:50:34;9.80;23.20
4308;DHT22;2167;53.448;9.984;2023-05-07T04:52:59;9.80;23.20
4308;DHT22;2167;53.448;9.984;2023-05-07T04:55:25;9.80;23.60
4308;DHT22;2167;53.448;9.984;2023-05-07T04:57:51;9.80;23.60
4308;DHT22;2167;53.448;9.984;2023-05-07T05:00:17;9.80;23.50
4308;DHT22;2167;53.448;9.984;2023-05-07T05:02:45;9.80;23.40
4308;DHT22;2167;53.448;9.984;2023-05-07T05:05:10;9.80;23.30
4308;DHT22;2167;53.448;9.984;2023-05-07T05:07:37;9.80;23.40
4308;DHT22;2167;53.448;9.984;2023-05-07T05:10:03;9.80;23.50
4308;DHT22;2167;53.448;9.984;2023-05-07T05:12:29;9.90;23.70
4308;DHT22;2167;53.448;9.984;2023-05-07T05:14:55;9.90;23.20
4308;DHT22;2167;53.448;9.984;2023-05-07T05:17:21;9.90;23.40
4308;DHT22;2167;53.448;9.984;2023-05-07T05:19:46;9.90;23.80
4308;DHT22;2167;53.448;9.984;2023-05-07T05:22:12;10.00;23.30
4308;DHT22;2167;53.448;9.984;2023-05-07T05:24:37;9.90;23.10
4308;DHT22;2167;53.448;9.984;2023-05-07T05:27:05;9.90;23.20
4308;DHT22;2167;53.448;9.984;2023-05-07T05:29:30;9.90;23.50
4308;DHT22;2167;53.448;9.984;2023-05-07T05:31:57;9.90;23.90
4308;DHT22;2167;53.448;9.984;2023-05-07T05:34:22;9.90;24.30
4308;DHT22;2167;53.448;9.984;2023-05-07T05:36:48;9.90;24.40
4308;DHT22;2167;53.448;9.984;2023-05-07T05:39:13;10.00;24.20
4308;DHT22;2167;53.448;9.984;2023-05-07T05:41:39;10.00;24.20
4308;DHT22;2167;53.448;9.984;2023-05-07T05:44:05;10.00;23.90
4308;DHT22;2167;53.448;9.984;2023-05-07T05:46:31;10.00;24.60
4308;DHT22;2167;53.448;9.984;2023-05-07T05:48:56;10.10;24.20
4308;DHT22;2167;53.448;9.984;2023-05-07T05:51:22;10.10;23.70
4308;DHT22;2167;53.448;9.984;2023-05-07T05:53:48;10.00;23.90
4308;DHT22;2167;53.448;9.984;2023-05-07T05:56:15;10.00;23.90
4308;DHT22;2167;53.448;9.984;2023-05-07T05:58:41;10.00;23.80
4308;DHT22;2167;53.448;9.984;2023-05-07T06:01:06;10.10;23.90
4308;DHT22;2167;53.448;9.984;2023-05-07T06:03:32;10.10;24.70
4308;DHT22;2167;53.448;9.984;2023-05-07T06:05:58;10.10;23.60
4308;DHT22;2167;53.448;9.984;2023-05-07T06:08:23;10.10;23.50
4308;DHT22;2167;53.448;9.984;2023-05-07T06:10:49;10.10;23.60
4308;DHT22;2167;53.448;9.984;2023-05-07T06:13:15;10.20;23.80
4308;DHT22;2167;53.448;9.984;2023-05-07T06:15:41;10.30;23.40
4308;DHT22;2167;53.448;9.984;2023-05-07T06:18:12;10.30;23.20
4308;DHT22;2167;53.448;9.984;2023-05-07T06:20:38;10.30;23.30
4308;DHT22;2167;53.448;9.984;2023-05-07T06:23:03;10.30;22.00
4308;DHT22;2167;53.448;9.984;2023-05-07T06:25:29;10.30;21.00
4308;DHT22;2167;53.448;9.984;2023-05-07T06:27:54;10.30;20.70
4308;DHT22;2167;53.448;9.984;2023-05-07T06:30:20;10.20;20.50
4308;DHT22;2167;53.448;9.984;2023-05-07T06:32:48;10.20;20.90
4308;DHT22;2167;53.448;9.984;2023-05-07T06:35:14;10.20;20.90
4308;DHT22;2167;53.448;9.984;2023-05-07T06:37:41;10.20;20.90
4308;DHT22;2167;53.448;9.984;2023-05-07T06:40:17;10.20;21.40
4308;DHT22;2167;53.448;9.984;2023-05-07T06:42:42;10.30;21.50
4308;DHT22;2167;53.448;9.984;2023-05-07T06:45:08;10.30;22.10
4308;DHT22;2167;53.448;9.984;2023-05-07T06:47:34;10.30;21.20
4308;DHT22;2167;53.448;9.984;2023-05-07T06:49:59;10.40;21.20
4308;DHT22;2167;53.448;9.984;2023-05-07T06:52:25;10.40;21.30
4308;DHT22;2167;53.448;9.984;2023-05-07T06:54:51;10.40;21.90
4308;DHT22;2167;53.448;9.984;2023-05-07T06:57:16;10.40;21.00
4308;DHT22;2167;53.448;9.984;2023-05-07T06:59:42;10.30;21.20
4308;DHT22;2167;53.448;9.984;2023-05-07T07:02:08;10.40;21.90
4308;DHT22;2167;53.448;9.984;2023-05-07T07:04:34;10.40;21.60
4308;DHT22;2167;53.448;9.984;2023-05-07T07:06:59;10.50;21.10
4308;DHT22;2167;53.448;9.984;2023-05-07T07:09:25;10.50;20.70
4308;DHT22;2167;53.448;9.984;2023-05-07T07:11:50;10.50;20.60
4308;DHT22;2167;53.448;9.984;2023-05-07T07:14:16;10.50;20.50
4308;DHT22;2167;53.448;9.984;2023-05-07T07:16:42;10.60;20.50
4308;DHT22;2167;53.448;9.984;2023-05-07T07:19:08;10.70;20.80
4308;DHT22;2167;53.448;9.984;2023-05-07T07:21:33;10.80;20.00
4308;DHT22;2167;53.448;9.984;2023-05-07T07:23:59;10.70;20.10
4308;DHT22;2167;53.448;9.984;2023-05-07T07:26:24;10.70;19.80
4308;DHT22;2167;53.448;9.984;2023-05-07T07:28:50;10.80;19.00
4308;DHT22;2167;53.448;9.984;2023-05-07T07:31:16;10.80;18.70
4308;DHT22;2167;53.448;9.984;2023-05-07T07:33:41;10.80;19.00
4308;DHT22;2167;53.448;9.984;2023-05-07T07:36:07;10.90;18.90
4308;DHT22;2167;53.448;9.984;2023-05-07T07:38:33;10.90;18.30
4308;DHT22;2167;53.448;9.984;2023-05-07T07:41:00;10.90;17.40
4308;DHT22;2167;53.448;9.984;2023-05-07T07:43:25;11.00;17.30
4308;DHT22;2167;53.448;9.984;2023-05-07T07:45:51;10.90;16.80
4308;DHT22;2167;53.448;9.984;2023-05-07T07:48:16;11.00;16.90
4308;DHT22;2167;53.448;9.984;2023-05-07T07:50:42;11.10;17.00
4308;DHT22;2167;53.448;9.984;2023-05-07T07:53:08;11.10;16.90
4308;DHT22;2167;53.448;9.984;2023-05-07T07:55:41;11.10;17.20
4308;DHT22;2167;53.448;9.984;2023-05-07T07:58:06;11.20;15.80
4308;DHT22;2167;53.448;9.984;2023-05-07T08:00:32;11.20;15.50
4308;DHT22;2167;53.448;9.984;2023-05-07T08:02:57;11.30;15.30
4308;DHT22;2167;53.448;9.984;2023-05-07T08:05:23;11.30;15.70
4308;DHT22;2167;53.448;9.984;2023-05-07T08:07:49;11.40;15.80
4308;DHT22;2167;53.448;9.984;2023-05-07T08:10:18;11.50;14.70
4308;DHT22;2167;53.448;9.984;2023-05-07T08:12:48;11.40;14.50
4308;DHT22;2167;53.448;9.984;2023-05-07T08:15:14;11.40;15.30
4308;DHT22;2167;53.448;9.984;2023-05-07T08:17:40;11.40;16.30
4308;DHT22;2167;53.448;9.984;2023-05-07T08:20:06;11.60;15.70
4308;DHT22;2167;53.448;9.984;2023-05-07T08:22:34;11.60;15.50
4308;DHT22;2167;53.448;9.984;2023-05-07T08:24:59;11.60;15.70
4308;DHT22;2167;53.448;9.984;2023-05-07T08:27:25;11.60;15.10
4308;DHT22;2167;53.448;9.984;2023-05-07T08:29:51;11.60;15.00
4308;DHT22;2167;53.448;9.984;2023-05-07T08:32:16;11.70;14.70
4308;DHT22;2167;53.448;9.984;2023-05-07T08:34:42;11.70;14.80
4308;DHT22;2167;53.448;9.984;2023-05-07T08:37:07;11.80;13.40
4308;DHT22;2167;53.448;9.984;2023-05-07T08:39:33;11.70;11.50
4308;DHT22;2167;53.448;9.984;2023-05-07T08:42:00;11.70;11.20
4308;DHT22;2167;53.448;9.984;2023-05-07T08:44:34;11.70;11.70
4308;DHT22;2167;53.448;9.984;2023-05-07T08:47:02;11.80;11.50
4308;DHT22;2167;53.448;9.984;2023-05-07T08:49:28;11.80;12.50
4308;DHT22;2167;53.448;9.984;2023-05-07T08:51:54;11.90;12.20
4308;DHT22;2167;53.448;9.984;2023-05-07T08:54:21;11.80;12.20
4308;DHT22;2167;53.448;9.984;2023-05-07T08:56:47;11.80;11.50
4308;DHT22;2167;53.448;9.984;2023-05-07T08:59:13;11.80;11.70
4308;DHT22;2167;53.448;9.984;2023-05-07T09:01:39;11.90;12.30
4308;DHT22;2167;53.448;9.984;2023-05-07T09:04:05;12.00;11.50
4308;DHT22;2167;53.448;9.984;2023-05-07T09:06:32;12.00;10.80
4308;DHT22;2167;53.448;9.984;2023-05-07T09:08:58;12.10;10.80
4308;DHT22;2167;53.448;9.984;2023-05-07T09:11:26;12.20;10.20
4308;DHT22;2167;53.448;9.984;2023-05-07T09:13:56;12.10;9.40
4308;DHT22;2167;53.448;9.984;2023-05-07T09:16:24;12.10;10.60
4308;DHT22;2167;53.448;9.984;2023-05-07T09:18:53;12.10;11.10
4308;DHT22;2167;53.448;9.984;2023-05-07T09:21:21;12.20;11.80
4308;DHT22;2167;53.448;9.984;2023-05-07T09:23:50;12.30;10.20
4308;DHT22;2167;53.448;9.984;2023-05-07T09:26:16;12.30;9.50
4308;DHT22;2167;53.448;9.984;2023-05-07T09:28:42;12.30;8.70
4308;DHT22;2167;53.448;9.984;2023-05-07T09:31:08;12.30;9.30
4308;DHT22;2167;53.448;9.984;2023-05-07T09:33:34;12.40;9.00
4308;DHT22;2167;53.448;9.984;2023-05-07T09:36:08;12.30;9.20
4308;DHT22;2167;53.448;9.984;2023-05-07T09:38:34;12.40;9.20
4308;DHT22;2167;53.448;9.984;2023-05-07T09:41:10;12.40;8.40
4308;DHT22;2167;53.448;9.984;2023-05-07T09:43:37;12.40;8.90
4308;DHT22;2167;53.448;9.984;2023-05-07T09:46:15;12.40;9.00
4308;DHT22;2167;53.448;9.984;2023-05-07T09:48:43;12.50;9.30
4308;DHT22;2167;53.448;9.984;2023-05-07T09:51:28;12.50;8.20
4308;DHT22;2167;53.448;9.984;2023-05-07T09:53:56;12.50;7.90
4308;DHT22;2167;53.448;9.984;2023-05-07T09:56:22;12.50;7.70
4308;DHT22;2167;53.448;9.984;2023-05-07T09:58:49;12.60;7.80
4308;DHT22;2167;53.448;9.984;2023-05-07T10:01:17;12.60;7.60
4308;DHT22;2167;53.448;9.984;2023-05-07T10:03:44;12.60;6.80
4308;DHT22;2167;53.448;9.984;2023-05-07T10:06:12;12.60;7.70
4308;DHT22;2167;53.448;9.984;2023-05-07T10:08:38;12.60;6.00
4308;DHT22;2167;53.448;9.984;2023-05-07T10:11:05;12.60;7.30
4308;DHT22;2167;53.448;9.984;2023-05-07T10:13:33;12.60;7.30
4308;DHT22;2167;53.448;9.984;2023-05-07T10:16:02;12.70;5.80
4308;DHT22;2167;53.448;9.984;2023-05-07T10:18:28;12.70;5.60
4308;DHT22;2167;53.448;9.984;2023-05-07T10:21:08;12.70;5.20
4308;DHT22;2167;53.448;9.984;2023-05-07T10:23:36;12.70;4.70
4308;DHT22;2167;53.448;9.984;2023-05-07T10:26:06;12.70;4.40
4308;DHT22;2167;53.448;9.984;2023-05-07T10:28:36;12.80;5.00
4308;DHT22;2167;53.448;9.984;2023-05-07T10:31:18;12.80;4.00
4308;DHT22;2167;53.448;9.984;2023-05-07T10:33:47;12.90;4.70
4308;DHT22;2167;53.448;9.984;2023-05-07T10:36:14;13.00;5.20
4308;DHT22;2167;53.448;9.984;2023-05-07T10:38:40;13.10;3.20
4308;DHT22;2167;53.448;9.984;2023-05-07T10:41:06;13.00;1.40
4308;DHT22;2167;53.448;9.984;2023-05-07T10:43:42;13.00;2.00
4308;DHT22;2167;53.448;9.984;2023-05-07T10:46:18;13.00;1.80
4308;DHT22;2167;53.448;9.984;2023-05-07T10:49:06;13.00;2.90
4308;DHT22;2167;53.448;9.984;2023-05-07T10:51:33;12.90;2.60
4308;DHT22;2167;53.448;9.984;2023-05-07T10:54:24;12.90;4.50
4308;DHT22;2167;53.448;9.984;2023-05-07T10:56:50;13.00;4.30
4308;DHT22;2167;53.448;9.984;2023-05-07T11:02:00;13.10;2.30
4308;DHT22;2167;53.448;9.984;2023-05-07T11:04:31;13.20;2.10
4308;DHT22;2167;53.448;9.984;2023-05-07T11:09:57;13.40;1.00
4308;DHT22;2167;53.448;9.984;2023-05-07T11:15:03;13.40;1.00
4308;DHT22;2167;53.448;9.984;2023-05-07T11:17:29;13.50;1.00
4308;DHT22;2167;53.448;9.984;2023-05-07T11:19:57;13.60;1.00
4308;DHT22;2167;53.448;9.984;2023-05-07T11:25:00;13.90;1.00
4308;DHT22;2167;53.448;9.984;2023-05-07T11:27:26;14.00;1.00
4308;DHT22;2167;53.448;9.984;2023-05-07T11:29:52;14.30;1.00
4308;DHT22;2167;53.448;9.984;2023-05-07T11:32:29;14.40;1.00
4308;DHT22;2167;53.448;9.984;2023-05-07T11:34:56;14.50;1.00
4308;DHT22;2167;53.448;9.984;2023-05-07T11:37:23;14.50;1.00
4308;DHT22;2167;53.448;9.984;2023-05-07T11:39:50;14.50;1.00
4308;DHT22;2167;53.448;9.984;2023-05-07T11:42:38;14.50;1.00
4308;DHT22;2167;53.448;9.984;2023-05-07T11:45:05;14.50;1.00
4308;DHT22;2167;53.448;9.984;2023-05-07T11:47:31;14.50;1.00
4308;DHT22;2167;53.448;9.984;2023-05-07T11:49:57;14.50;1.00
4308;DHT22;2167;53.448;9.984;2023-05-07T11:52:27;14.50;1.00
4308;DHT22;2167;53.448;9.984;2023-05-07T11:54:57;14.50;1.00
4308;DHT22;2167;53.448;9.984;2023-05-07T11:57:24;14.60;1.00
4308;DHT22;2167;53.448;9.984;2023-05-07T12:00:08;14.60;1.00
4308;DHT22;2167;53.448;9.984;2023-05-07T12:02:34;14.80;1.00
4308;DHT22;2167;53.448;9.984;2023-05-07T12:05:00;14.90;1.00
4308;DHT22;2167;53.448;9.984;2023-05-07T12:07:27;15.00;1.00
4308;DHT22;2167;53.448;9.984;2023-05-07T12:09:53;15.10;1.00
4308;DHT22;2167;53.448;9.984;2023-05-07T12:12:19;15.20;1.00
4308;DHT22;2167;53.448;9.984;2023-05-07T12:14:46;15.20;1.00
4308;DHT22;2167;53.448;9.984;2023-05-07T12:17:13;15.20;1.00
4308;DHT22;2167;53.448;9.984;2023-05-07T12:19:41;15.10;1.00
4308;DHT22;2167;53.448;9.984;2023-05-07T12:22:08;15.00;1.00
4308;DHT22;2167;53.448;9.984;2023-05-07T12:24:47;15.10;1.00
4308;DHT22;2167;53.448;9.984;2023-05-07T12:27:14;15.20;1.00
4308;DHT22;2167;53.448;9.984;2023-05-07T12:29:47;15.20;1.00
4308;DHT22;2167;53.448;9.984;2023-05-07T12:32:14;15.30;1.00
4308;DHT22;2167;53.448;9.984;2023-05-07T12:34:40;15.40;1.00
4308;DHT22;2167;53.448;9.984;2023-05-07T12:37:06;15.50;1.00
4308;DHT22;2167;53.448;9.984;2023-05-07T12:39:32;15.70;1.00
4308;DHT22;2167;53.448;9.984;2023-05-07T12:41:59;15.80;1.00
4308;DHT22;2167;53.448;9.984;2023-05-07T12:44:34;16.00;1.00
4308;DHT22;2167;53.448;9.984;2023-05-07T12:47:03;16.20;1.00
4308;DHT22;2167;53.448;9.984;2023-05-07T12:49:28;16.20;1.00
4308;DHT22;2167;53.448;9.984;2023-05-07T12:51:54;16.30;1.00
4308;DHT22;2167;53.448;9.984;2023-05-07T12:54:34;16.30;1.00
4308;DHT22;2167;53.448;9.984;2023-05-07T12:57:05;16.30;1.00
4308;DHT22;2167;53.448;9.984;2023-05-07T12:59:36;16.40;1.00
4308;DHT22;2167;53.448;9.984;2023-05-07T13:02:02;16.60;1.00
4308;DHT22;2167;53.448;9.984;2023-05-07T13:04:28;16.80;1.00
4308;DHT22;2167;53.448;9.984;2023-05-07T13:06:56;17.00;1.00
4308;DHT22;2167;53.448;9.984;2023-05-07T13:09:21;17.30;1.00
4308;DHT22;2167;53.448;9.984;2023-05-07T13:11:47;17.40;1.00
4308;DHT22;2167;53.448;9.984;2023-05-07T13:14:13;17.40;1.00
4308;DHT22;2167;53.448;9.984;2023-05-07T13:16:38;17.50;1.00
4308;DHT22;2167;53.448;9.984;2023-05-07T13:19:07;17.60;1.00
4308;DHT22;2167;53.448;9.984;2023-05-07T13:21:32;17.50;1.00
4308;DHT22;2167;53.448;9.984;2023-05-07T13:23:58;17.40;1.00
4308;DHT22;2167;53.448;9.984;2023-05-07T13:26:25;17.40;1.00
4308;DHT22;2167;53.448;9.984;2023-05-07T13:28:52;17.40;1.00
4308;DHT22;2167;53.448;9.984;2023-05-07T13:31:17;17.50;1.00
4308;DHT22;2167;53.448;9.984;2023-05-07T13:33:43;17.60;1.00
4308;DHT22;2167;53.448;9.984;2023-05-07T13:36:09;17.70;1.00
4308;DHT22;2167;53.448;9.984;2023-05-07T13:38:35;18.00;1.00
4308;DHT22;2167;53.448;9.984;2023-05-07T13:41:01;18.30;1.00
4308;DHT22;2167;53.448;9.984;2023-05-07T13:43:26;18.60;1.00
4308;DHT22;2167;53.448;9.984;2023-05-07T13:45:52;18.80;1.00
4308;DHT22;2167;53.448;9.984;2023-05-07T13:48:17;18.90;1.00
4308;DHT22;2167;53.448;9.984;2023-05-07T13:50:43;18.90;1.00
4308;DHT22;2167;53.448;9.984;2023-05-07T13:53:08;18.90;1.00
4308;DHT22;2167;53.448;9.984;2023-05-07T13:55:37;19.00;1.00
4308;DHT22;2167;53.448;9.984;2023-05-07T13:58:03;18.80;1.00
4308;DHT22;2167;53.448;9.984;2023-05-07T14:00:29;18.40;1.00
4308;DHT22;2167;53.448;9.984;2023-05-07T14:02:55;18.30;1.00
4308;DHT22;2167;53.448;9.984;2023-05-07T14:05:22;18.20;1.00
4308;DHT22;2167;53.448;9.984;2023-05-07T14:07:52;18.20;1.00
4308;DHT22;2167;53.448;9.984;2023-05-07T14:10:18;18.20;1.00
4308;DHT22;2167;53.448;9.984;2023-05-07T14:12:44;18.20;1.00
4308;DHT22;2167;53.448;9.984;2023-05-07T14:15:11;18.10;1.00
4308;DHT22;2167;53.448;9.984;2023-05-07T14:17:37;18.10;1.00
4308;DHT22;2167;53.448;9.984;2023-05-07T14:20:03;18.20;1.00
4308;DHT22;2167;53.448;9.984;2023-05-07T14:22:28;18.40;1.00
4308;DHT22;2167;53.448;9.984;2023-05-07T14:24:54;18.50;1.00
4308;DHT22;2167;53.448;9.984;2023-05-07T14:27:19;18.70;1.00
4308;DHT22;2167;53.448;9.984;2023-05-07T14:29:45;18.90;1.00
4308;DHT22;2167;53.448;9.984;2023-05-07T14:32:18;19.00;1.00
4308;DHT22;2167;53.448;9.984;2023-05-07T14:34:45;19.00;1.00
4308;DHT22;2167;53.448;9.984;2023-05-07T14:37:10;18.70;1.00
4308;DHT22;2167;53.448;9.984;2023-05-07T14:39:36;18.60;1.00
4308;DHT22;2167;53.448;9.984;2023-05-07T14:42:02;18.50;1.00
4308;DHT22;2167;53.448;9.984;2023-05-07T14:44:28;18.30;1.00
4308;DHT22;2167;53.448;9.984;2023-05-07T14:46:54;18.20;1.00
4308;DHT22;2167;53.448;9.984;2023-05-07T14:49:20;18.00;1.00
4308;DHT22;2167;53.448;9.984;2023-05-07T14:51:46;18.00;1.00
4308;DHT22;2167;53.448;9.984;2023-05-07T14:54:13;17.90;1.00
4308;DHT22;2167;53.448;9.984;2023-05-07T14:56:39;17.90;1.00
4308;DHT22;2167;53.448;9.984;2023-05-07T14:59:05;17.70;1.00
4308;DHT22;2167;53.448;9.984;2023-05-07T15:01:31;17.60;1.00
4308;DHT22;2167;53.448;9.984;2023-05-07T15:03:57;17.50;1.00
4308;DHT22;2167;53.448;9.984;2023-05-07T15:06:22;17.40;1.00
4308;DHT22;2167;53.448;9.984;2023-05-07T15:08:48;17.40;1.00
4308;DHT22;2167;53.448;9.984;2023-05-07T15:11:14;17.30;1.00
4308;DHT22;2167;53.448;9.984;2023-05-07T15:13:41;17.30;1.00
4308;DHT22;2167;53.448;9.984;2023-05-07T15:16:06;17.30;1.00
4308;DHT22;2167;53.448;9.984;2023-05-07T15:18:32;17.20;1.00
4308;DHT22;2167;53.448;9.984;2023-05-07T15:20:58;17.20;1.00
4308;DHT22;2167;53.448;9.984;2023-05-07T15:23:23;17.20;1.00
4308;DHT22;2167;53.448;9.984;2023-05-07T15:25:49;17.10;1.00
4308;DHT22;2167;53.448;9.984;2023-05-07T15:28:15;17.10;1.00
4308;DHT22;2167;53.448;9.984;2023-05-07T15:30:41;17.10;1.00
4308;DHT22;2167;53.448;9.984;2023-05-07T15:33:06;17.20;1.00
4308;DHT22;2167;53.448;9.984;2023-05-07T15:35:32;17.20;1.00
4308;DHT22;2167;53.448;9.984;2023-05-07T15:37:57;17.20;1.00
4308;DHT22;2167;53.448;9.984;2023-05-07T15:40:23;17.20;1.00
4308;DHT22;2167;53.448;9.984;2023-05-07T15:42:48;17.20;1.00
4308;DHT22;2167;53.448;9.984;2023-05-07T15:45:15;17.10;1.00
4308;DHT22;2167;53.448;9.984;2023-05-07T15:47:40;17.10;1.00
4308;DHT22;2167;53.448;9.984;2023-05-07T15:50:06;17.00;1.00
4308;DHT22;2167;53.448;9.984;2023-05-07T15:52:32;17.00;1.00
4308;DHT22;2167;53.448;9.984;2023-05-07T15:54:58;17.00;1.00
4308;DHT22;2167;53.448;9.984;2023-05-07T15:57:24;16.90;1.00
4308;DHT22;2167;53.448;9.984;2023-05-07T15:59:50;17.00;1.00
4308;DHT22;2167;53.448;9.984;2023-05-07T16:02:15;17.10;1.00
4308;DHT22;2167;53.448;9.984;2023-05-07T16:04:41;17.20;1.00
4308;DHT22;2167;53.448;9.984;2023-05-07T16:07:06;17.20;1.00
4308;DHT22;2167;53.448;9.984;2023-05-07T16:09:32;17.20;1.00
4308;DHT22;2167;53.448;9.984;2023-05-07T16:11:59;17.30;1.00
4308;DHT22;2167;53.448;9.984;2023-05-07T16:14:25;17.30;1.00
4308;DHT22;2167;53.448;9.984;2023-05-07T16:16:51;17.40;1.00
4308;DHT22;2167;53.448;9.984;2023-05-07T16:19:17;17.50;1.00